»·PEaware :: N318DA KSNA-KRNM

N318DA :: KSNA-KRNM

FLIGHT INFORMATION

Flight Status: Arrived
Operator: Privately registered:
United States
More flights under this callsign
Pilot: Roland T. (32460)
Aircraft: CIRRUS SR-22
(SR22)
More flights by this aircraft type
Origin: KSNA John Wayne-Orange Co
United States
Destination: KRNM Ramona
United States
More flights between these airports :: More routes between these airports
Route: +V23 OCN V208 JLI
File this flight plan on PilotEdge
Remarks:
Altitude:
(Current/Filed)
7,000ft
Speed:
(Current/Filed)
160kts
Departed: 25-Nov-20 10:57 AM
Arrived: 25-Nov-20 11:32 AM
Distance/Time
Traveled:
6774nm/0:35
Distance/Time
To Go:
Arrived

Flight Plot

Page will automatically refresh every two minutes.


Map Options




Map Legend


Flown Route
Filed Route
Departure Airport
Arrival Airport
Navaid (VOR, NDB)
Fix

Horizontal Profiles

Position Reports

Time Latitude Longitude Heading Altitude Ground
Speed
25-Nov-20 10:26 33.675795 -117.870928 359 53ft 0kts
25-Nov-20 10:27 33.675795 -117.870928 359 53ft 0kts
25-Nov-20 10:28 33.675795 -117.870928 359 53ft 0kts
25-Nov-20 10:29 33.675795 -117.870928 359 53ft 0kts
25-Nov-20 10:30 33.675795 -117.870928 359 53ft 0kts
25-Nov-20 10:31 33.675795 -117.870928 359 53ft 0kts
25-Nov-20 10:32 33.675795 -117.870928 359 53ft 0kts
25-Nov-20 10:33 33.675795 -117.870928 359 53ft 0kts
25-Nov-20 10:34 33.675795 -117.870928 359 53ft 0kts
25-Nov-20 10:35 33.675795 -117.870928 359 53ft 0kts
25-Nov-20 10:36 33.675795 -117.870928 359 53ft 0kts
25-Nov-20 10:37 33.675795 -117.870928 359 53ft 0kts
25-Nov-20 10:38 33.675795 -117.870928 359 53ft 0kts
25-Nov-20 10:39 33.675795 -117.870928 359 53ft 0kts
25-Nov-20 10:40 33.675795 -117.870928 359 53ft 0kts
25-Nov-20 10:41 33.675795 -117.870928 359 53ft 0kts
25-Nov-20 10:42 33.675795 -117.870928 359 53ft 0kts
25-Nov-20 10:43 33.675795 -117.870928 359 53ft 0kts
25-Nov-20 10:44 33.675795 -117.870928 359 53ft 0kts
25-Nov-20 10:45 33.675795 -117.870928 359 53ft 0kts
25-Nov-20 10:46 33.675795 -117.870928 359 53ft 0kts
25-Nov-20 10:47 33.675795 -117.870928 359 53ft 0kts
25-Nov-20 10:48 33.675795 -117.870928 359 53ft 0kts
25-Nov-20 10:49 33.675795 -117.870928 359 53ft 0kts
25-Nov-20 10:50 33.676202 -117.870036 20 54ft 10kts
25-Nov-20 10:51 33.679554 -117.868010 15 47ft 15kts
25-Nov-20 10:52 33.681221 -117.866476 102 43ft 0kts
25-Nov-20 10:53 33.681221 -117.866476 102 43ft 0kts
25-Nov-20 10:55 33.681221 -117.866476 102 43ft 0kts
25-Nov-20 10:56 33.680702 -117.865689 200 43ft 0kts
25-Nov-20 10:57 33.675873 -117.868698 205 66ft 82kts
25-Nov-20 10:58 33.650457 -117.876201 184 1068ft 96kts
25-Nov-20 10:59 33.618596 -117.877534 185 2028ft 125kts
25-Nov-20 11:00 33.583344 -117.881293 185 3093ft 127kts
25-Nov-20 11:01 33.547617 -117.885185 185 4066ft 129kts
25-Nov-20 11:02 33.511487 -117.889233 186 4954ft 131kts
25-Nov-20 11:03 33.474855 -117.893394 186 5774ft 133kts
25-Nov-20 11:04 33.437763 -117.897809 186 6529ft 134kts
25-Nov-20 11:05 33.408753 -117.869918 131 6991ft 150kts
25-Nov-20 11:06 33.397929 -117.821876 110 6996ft 164kts
25-Nov-20 11:07 33.377737 -117.770916 115 6997ft 166kts
25-Nov-20 11:08 33.358281 -117.720644 114 6997ft 166kts
25-Nov-20 11:09 33.338890 -117.670540 114 6997ft 166kts
25-Nov-20 11:09 33.322654 -117.628611 114 6997ft 166kts
25-Nov-20 11:11 33.299973 -117.570140 114 6998ft 166kts
25-Nov-20 11:12 33.280518 -117.520037 114 6998ft 166kts
25-Nov-20 11:13 33.261152 -117.470330 114 6997ft 166kts
25-Nov-20 11:14 33.241687 -117.420407 114 6997ft 166kts
25-Nov-20 11:14 33.235771 -117.375123 99 6998ft 166kts
25-Nov-20 11:16 33.228128 -117.311121 97 6999ft 166kts
25-Nov-20 11:16 33.222717 -117.265598 98 6997ft 166kts
25-Nov-20 11:17 33.216250 -117.210794 98 6998ft 166kts
25-Nov-20 11:18 33.200980 -117.159290 113 6678ft 178kts
25-Nov-20 11:19 33.181383 -117.104349 113 6180ft 181kts
25-Nov-20 11:20 33.161570 -117.048999 113 5681ft 181kts
25-Nov-20 11:21 33.141666 -116.993453 113 5181ft 182kts
25-Nov-20 11:22 33.123612 -116.938684 91 4998ft 172kts
25-Nov-20 11:23 33.136717 -116.884353 70 4997ft 170kts
25-Nov-20 11:24 33.149850 -116.830587 102 5005ft 170kts
25-Nov-20 11:25 33.114911 -116.792424 145 4323ft 160kts
25-Nov-20 11:26 33.082411 -116.798651 223 2968ft 116kts
25-Nov-20 11:27 33.066703 -116.825741 249 2718ft 97kts
25-Nov-20 11:28 33.056159 -116.862872 239 1828ft 98kts
25-Nov-20 11:29 33.047290 -116.885296 251 1788ft 70kts
25-Nov-20 11:30 33.038115 -116.906875 270 1600ft 69kts
25-Nov-20 11:31 33.039853 -116.919707 296 1391ft 10kts
25-Nov-20 11:32 33.040434 -116.919111 104 1392ft 9kts
25-Nov-20 11:33 33.040080 -116.916860 100 1392ft 7kts
25-Nov-20 11:34 33.040365 -116.914440 8 1394ft 7kts
25-Nov-20 11:35 33.040533 -116.912848 110 1395ft 0kts
25-Nov-20 11:36 33.040366 -116.912532 22 1395ft 0kts
25-Nov-20 11:37 0.000408 0.013975 359 3ft 0kts

Navigation Log

Ident Type
Flight plan parsing failed, navigation log unavailable